sensor_id;sensor_type;location;lat;lon;timestamp;pressure;altitude;pressure_sealevel;temperature;humidity
18985;BME280;9626;52.552;13.436;2023-05-19T00:01:34;102117.66;;;10.39;90.09
18985;BME280;9626;52.552;13.436;2023-05-19T00:04:02;102118.53;;;10.35;90.19
18985;BME280;9626;52.552;13.436;2023-05-19T00:06:31;102126.47;;;10.35;90.30
18985;BME280;9626;52.552;13.436;2023-05-19T00:09:04;102117.56;;;10.30;90.10
18985;BME280;9626;52.552;13.436;2023-05-19T00:11:32;102116.78;;;10.46;88.38
18985;BME280;9626;52.552;13.436;2023-05-19T00:14:03;102128.16;;;10.27;90.23
18985;BME280;9626;52.552;13.436;2023-05-19T00:16:30;102121.84;;;10.00;92.24
18985;BME280;9626;52.552;13.436;2023-05-19T00:18:57;102130.50;;;9.77;94.77
18985;BME280;9626;52.552;13.436;2023-05-19T00:21:25;102115.63;;;9.93;94.19
18985;BME280;9626;52.552;13.436;2023-05-19T00:23:51;102123.69;;;10.17;91.12
18985;BME280;9626;52.552;13.436;2023-05-19T00:26:17;102133.28;;;9.94;93.46
18985;BME280;9626;52.552;13.436;2023-05-19T00:28:43;102120.94;;;9.96;93.78
18985;BME280;9626;52.552;13.436;2023-05-19T00:31:09;102125.41;;;10.02;92.69
18985;BME280;9626;52.552;13.436;2023-05-19T00:33:35;102118.34;;;10.04;92.19
18985;BME280;9626;52.552;13.436;2023-05-19T00:36:02;102118.22;;;9.84;93.67
18985;BME280;9626;52.552;13.436;2023-05-19T00:38:34;102120.06;;;9.99;91.99
18985;BME280;9626;52.552;13.436;2023-05-19T00:41:03;102113.03;;;9.98;91.92
18985;BME280;9626;52.552;13.436;2023-05-19T00:43:29;102115.63;;;9.92;91.44
18985;BME280;9626;52.552;13.436;2023-05-19T00:45:56;102114.66;;;9.77;93.21
18985;BME280;9626;52.552;13.436;2023-05-19T00:48:24;102112.97;;;9.92;91.96
18985;BME280;9626;52.552;13.436;2023-05-19T00:50:54;102119.19;;;9.97;90.48
18985;BME280;9626;52.552;13.436;2023-05-19T00:53:22;102125.22;;;9.74;91.94
18985;BME280;9626;52.552;13.436;2023-05-19T00:55:49;102112.94;;;9.86;92.21
18985;BME280;9626;52.552;13.436;2023-05-19T00:58:16;102116.47;;;9.85;91.96
18985;BME280;9626;52.552;13.436;2023-05-19T01:00:42;102116.28;;;9.57;93.64
18985;BME280;9626;52.552;13.436;2023-05-19T01:03:08;102117.13;;;9.50;94.48
18985;BME280;9626;52.552;13.436;2023-05-19T01:05:39;102114.53;;;9.57;93.52
18985;BME280;9626;52.552;13.436;2023-05-19T01:08:12;102118.81;;;9.41;94.70
18985;BME280;9626;52.552;13.436;2023-05-19T01:10:38;102123.03;;;9.18;96.72
18985;BME280;9626;52.552;13.436;2023-05-19T01:13:05;102113.44;;;9.32;96.68
18985;BME280;9626;52.552;13.436;2023-05-19T01:15:42;102109.06;;;9.34;95.46
18985;BME280;9626;52.552;13.436;2023-05-19T01:18:23;102110.97;;;9.54;94.23
18985;BME280;9626;52.552;13.436;2023-05-19T01:21:08;102112.84;;;9.72;91.54
18985;BME280;9626;52.552;13.436;2023-05-19T01:24:17;102105.84;;;9.78;90.62
18985;BME280;9626;52.552;13.436;2023-05-19T01:32:18;102112.59;;;9.38;93.45
18985;BME280;9626;52.552;13.436;2023-05-19T01:34:47;102115.22;;;9.33;94.33
18985;BME280;9626;52.552;13.436;2023-05-19T01:37:15;102121.13;;;9.04;96.43
18985;BME280;9626;52.552;13.436;2023-05-19T01:39:43;102116.50;;;8.82;98.74
18985;BME280;9626;52.552;13.436;2023-05-19T01:42:11;102120.06;;;8.85;99.95
18985;BME280;9626;52.552;13.436;2023-05-19T01:44:37;102119.00;;;8.69;100.00
18985;BME280;9626;52.552;13.436;2023-05-19T01:47:04;102118.88;;;8.57;100.00
18985;BME280;9626;52.552;13.436;2023-05-19T01:49:30;102118.06;;;8.64;100.00
18985;BME280;9626;52.552;13.436;2023-05-19T01:51:56;102117.25;;;8.68;100.00
18985;BME280;9626;52.552;13.436;2023-05-19T01:54:22;102121.63;;;8.65;100.00
18985;BME280;9626;52.552;13.436;2023-05-19T01:56:59;102121.03;;;8.92;100.00
18985;BME280;9626;52.552;13.436;2023-05-19T02:02:01;102119.47;;;9.16;96.84
18985;BME280;9626;52.552;13.436;2023-05-19T02:04:42;102118.41;;;8.95;97.32
18985;BME280;9626;52.552;13.436;2023-05-19T02:07:14;102124.66;;;9.03;97.73
18985;BME280;9626;52.552;13.436;2023-05-19T02:09:56;102126.53;;;9.17;96.02
18985;BME280;9626;52.552;13.436;2023-05-19T02:12:31;102117.63;;;9.05;96.47
18985;BME280;9626;52.552;13.436;2023-05-19T02:15:05;102119.16;;;8.82;98.33
18985;BME280;9626;52.552;13.436;2023-05-19T02:17:35;102115.38;;;8.58;100.00
18985;BME280;9626;52.552;13.436;2023-05-19T02:20:03;102108.03;;;8.35;100.00
18985;BME280;9626;52.552;13.436;2023-05-19T02:22:30;102117.66;;;8.32;100.00
18985;BME280;9626;52.552;13.436;2023-05-19T02:24:56;102121.34;;;8.44;100.00
18985;BME280;9626;52.552;13.436;2023-05-19T02:27:22;102119.38;;;8.28;100.00
18985;BME280;9626;52.552;13.436;2023-05-19T02:29:48;102116.75;;;8.28;100.00
18985;BME280;9626;52.552;13.436;2023-05-19T02:32:15;102116.63;;;8.19;100.00
18985;BME280;9626;52.552;13.436;2023-05-19T02:34:41;102122.88;;;8.27;100.00
18985;BME280;9626;52.552;13.436;2023-05-19T02:37:13;102117.78;;;8.41;100.00
18985;BME280;9626;52.552;13.436;2023-05-19T02:39:40;102115.28;;;8.52;100.00
18985;BME280;9626;52.552;13.436;2023-05-19T02:42:06;102107.34;;;8.50;100.00
18985;BME280;9626;52.552;13.436;2023-05-19T02:44:32;102111.66;;;8.43;100.00
18985;BME280;9626;52.552;13.436;2023-05-19T02:47:00;102101.09;;;8.43;100.00
18985;BME280;9626;52.552;13.436;2023-05-19T02:49:26;102106.34;;;8.40;100.00
18985;BME280;9626;52.552;13.436;2023-05-19T02:51:52;102110.63;;;8.29;100.00
18985;BME280;9626;52.552;13.436;2023-05-19T02:54:18;102104.44;;;8.30;100.00
18985;BME280;9626;52.552;13.436;2023-05-19T02:56:44;102108.81;;;8.25;100.00
18985;BME280;9626;52.552;13.436;2023-05-19T02:59:11;102106.31;;;8.37;100.00
18985;BME280;9626;52.552;13.436;2023-05-19T03:01:37;102102.91;;;8.46;100.00
18985;BME280;9626;52.552;13.436;2023-05-19T03:04:10;102103.59;;;8.33;100.00
18985;BME280;9626;52.552;13.436;2023-05-19T03:06:38;102105.25;;;8.24;100.00
18985;BME280;9626;52.552;13.436;2023-05-19T03:09:04;102102.44;;;8.10;100.00
18985;BME280;9626;52.552;13.436;2023-05-19T03:11:30;102101.59;;;8.11;100.00
18985;BME280;9626;52.552;13.436;2023-05-19T03:13:57;102096.63;;;8.38;100.00
18985;BME280;9626;52.552;13.436;2023-05-19T03:16:23;102097.72;;;8.54;100.00
18985;BME280;9626;52.552;13.436;2023-05-19T03:18:49;102099.56;;;8.61;100.00
18985;BME280;9626;52.552;13.436;2023-05-19T03:21:15;102101.47;;;8.74;100.00
18985;BME280;9626;52.552;13.436;2023-05-19T03:23:41;102098.75;;;8.67;100.00
18985;BME280;9626;52.552;13.436;2023-05-19T03:26:08;102099.69;;;8.72;100.00
18985;BME280;9626;52.552;13.436;2023-05-19T03:28:34;102103.38;;;8.88;100.00
18985;BME280;9626;52.552;13.436;2023-05-19T03:31:00;102101.56;;;8.84;100.00
18985;BME280;9626;52.552;13.436;2023-05-19T03:33:26;102103.19;;;8.72;100.00
18985;BME280;9626;52.552;13.436;2023-05-19T03:35:57;102107.53;;;8.66;100.00
18985;BME280;9626;52.552;13.436;2023-05-19T03:38:23;102100.66;;;8.83;100.00
18985;BME280;9626;52.552;13.436;2023-05-19T03:40:49;102098.72;;;8.65;100.00
18985;BME280;9626;52.552;13.436;2023-05-19T03:43:19;102095.22;;;8.66;100.00
18985;BME280;9626;52.552;13.436;2023-05-19T03:45:45;102097.06;;;8.75;100.00
18985;BME280;9626;52.552;13.436;2023-05-19T03:48:11;102094.50;;;8.83;100.00
18985;BME280;9626;52.552;13.436;2023-05-19T03:50:37;102103.16;;;8.66;100.00
18985;BME280;9626;52.552;13.436;2023-05-19T03:53:03;102095.31;;;8.75;100.00
18985;BME280;9626;52.552;13.436;2023-05-19T03:55:29;102102.22;;;8.62;100.00
18985;BME280;9626;52.552;13.436;2023-05-19T03:57:55;102106.38;;;8.43;100.00
18985;BME280;9626;52.552;13.436;2023-05-19T04:00:21;102103.69;;;8.39;100.00
18985;BME280;9626;52.552;13.436;2023-05-19T04:02:48;102102.88;;;8.44;100.00
18985;BME280;9626;52.552;13.436;2023-05-19T04:05:14;102101.94;;;8.41;100.00
18985;BME280;9626;52.552;13.436;2023-05-19T04:07:40;102104.75;;;8.55;100.00
18985;BME280;9626;52.552;13.436;2023-05-19T04:10:08;102101.25;;;8.56;100.00
18985;BME280;9626;52.552;13.436;2023-05-19T04:12:34;102102.06;;;8.47;100.00
18985;BME280;9626;52.552;13.436;2023-05-19T04:15:00;102104.72;;;8.49;100.00
18985;BME280;9626;52.552;13.436;2023-05-19T04:17:26;102100.28;;;8.46;100.00
18985;BME280;9626;52.552;13.436;2023-05-19T04:19:52;102098.72;;;8.65;100.00
18985;BME280;9626;52.552;13.436;2023-05-19T04:22:19;102098.97;;;8.88;100.00
18985;BME280;9626;52.552;13.436;2023-05-19T04:24:45;102101.69;;;8.96;100.00
18985;BME280;9626;52.552;13.436;2023-05-19T04:27:12;102103.50;;;9.03;100.00
18985;BME280;9626;52.552;13.436;2023-05-19T04:29:38;102111.44;;;9.02;100.00
18985;BME280;9626;52.552;13.436;2023-05-19T04:32:06;102114.91;;;8.99;100.00
18985;BME280;9626;52.552;13.436;2023-05-19T04:34:33;102116.69;;;9.00;100.00
18985;BME280;9626;52.552;13.436;2023-05-19T04:37:00;102116.72;;;9.02;100.00
18985;BME280;9626;52.552;13.436;2023-05-19T04:39:26;102110.53;;;9.01;100.00
18985;BME280;9626;52.552;13.436;2023-05-19T04:41:52;102115.00;;;9.05;100.00
18985;BME280;9626;52.552;13.436;2023-05-19T04:44:18;102118.53;;;9.07;100.00
18985;BME280;9626;52.552;13.436;2023-05-19T04:46:45;102115.88;;;9.07;100.00
18985;BME280;9626;52.552;13.436;2023-05-19T04:49:11;102120.34;;;9.14;100.00
18985;BME280;9626;52.552;13.436;2023-05-19T04:51:37;102119.47;;;9.17;100.00
18985;BME280;9626;52.552;13.436;2023-05-19T04:54:06;102122.09;;;9.14;100.00
18985;BME280;9626;52.552;13.436;2023-05-19T04:56:32;102121.28;;;9.20;100.00
18985;BME280;9626;52.552;13.436;2023-05-19T04:58:58;102116.00;;;9.23;100.00
18985;BME280;9626;52.552;13.436;2023-05-19T05:01:25;102117.84;;;9.28;100.00
18985;BME280;9626;52.552;13.436;2023-05-19T05:03:51;102110.81;;;9.35;100.00
18985;BME280;9626;52.552;13.436;2023-05-19T05:06:20;102109.06;;;9.34;100.00
18985;BME280;9626;52.552;13.436;2023-05-19T05:08:47;102106.34;;;9.26;100.00
18985;BME280;9626;52.552;13.436;2023-05-19T05:11:14;102113.44;;;9.32;100.00
18985;BME280;9626;52.552;13.436;2023-05-19T05:13:40;102104.69;;;9.39;100.00
18985;BME280;9626;52.552;13.436;2023-05-19T05:16:06;102112.69;;;9.50;100.00
18985;BME280;9626;52.552;13.436;2023-05-19T05:18:33;102115.38;;;9.53;100.00
18985;BME280;9626;52.552;13.436;2023-05-19T05:21:02;102115.47;;;9.66;100.00
18985;BME280;9626;52.552;13.436;2023-05-19T05:23:28;102116.41;;;9.71;100.00
18985;BME280;9626;52.552;13.436;2023-05-19T05:25:54;102112.03;;;9.79;100.00
18985;BME280;9626;52.552;13.436;2023-05-19T05:28:20;102117.41;;;9.91;100.00
18985;BME280;9626;52.552;13.436;2023-05-19T05:30:46;102110.34;;;9.96;100.00
18985;BME280;9626;52.552;13.436;2023-05-19T05:33:13;102115.63;;;9.95;100.00
18985;BME280;9626;52.552;13.436;2023-05-19T05:35:39;102121.84;;;9.97;100.00
18985;BME280;9626;52.552;13.436;2023-05-19T05:38:05;102126.28;;;10.01;100.00
18985;BME280;9626;52.552;13.436;2023-05-19T05:40:31;102117.41;;;9.99;100.00
18985;BME280;9626;52.552;13.436;2023-05-19T05:42:58;102116.59;;;10.08;100.00
18985;BME280;9626;52.552;13.436;2023-05-19T05:45:24;102116.59;;;10.09;100.00
18985;BME280;9626;52.552;13.436;2023-05-19T05:47:51;102115.78;;;10.23;100.00
18985;BME280;9626;52.552;13.436;2023-05-19T05:50:17;102107.84;;;10.26;100.00
18985;BME280;9626;52.552;13.436;2023-05-19T05:52:45;102120.22;;;10.30;100.00
18985;BME280;9626;52.552;13.436;2023-05-19T05:55:15;102117.66;;;10.38;100.00
18985;BME280;9626;52.552;13.436;2023-05-19T05:57:42;102118.56;;;10.47;100.00
18985;BME280;9626;52.552;13.436;2023-05-19T06:00:09;102114.19;;;10.54;100.00
18985;BME280;9626;52.552;13.436;2023-05-19T06:02:43;102121.25;;;10.57;100.00
18985;BME280;9626;52.552;13.436;2023-05-19T06:05:09;102112.44;;;10.59;100.00
18985;BME280;9626;52.552;13.436;2023-05-19T06:07:40;102115.09;;;10.61;100.00
18985;BME280;9626;52.552;13.436;2023-05-19T06:10:07;102116.81;;;10.60;100.00
18985;BME280;9626;52.552;13.436;2023-05-19T06:12:34;102116.81;;;10.62;100.00
18985;BME280;9626;52.552;13.436;2023-05-19T06:15:05;102116.88;;;10.68;100.00
18985;BME280;9626;52.552;13.436;2023-05-19T06:17:33;102125.72;;;10.89;100.00
18985;BME280;9626;52.552;13.436;2023-05-19T06:20:04;102118.69;;;11.09;99.73
18985;BME280;9626;52.552;13.436;2023-05-19T06:22:35;102118.72;;;11.28;98.49
18985;BME280;9626;52.552;13.436;2023-05-19T06:25:01;102114.28;;;11.38;97.05
18985;BME280;9626;52.552;13.436;2023-05-19T06:27:27;102115.16;;;11.54;96.16
18985;BME280;9626;52.552;13.436;2023-05-19T06:29:53;102111.59;;;11.55;95.68
18985;BME280;9626;52.552;13.436;2023-05-19T06:32:19;102116.03;;;11.62;94.79
18985;BME280;9626;52.552;13.436;2023-05-19T06:34:45;102114.28;;;11.67;94.44
18985;BME280;9626;52.552;13.436;2023-05-19T06:37:21;102104.53;;;11.75;94.48
18985;BME280;9626;52.552;13.436;2023-05-19T06:39:51;102108.94;;;11.82;93.65
18985;BME280;9626;52.552;13.436;2023-05-19T06:42:18;102120.41;;;11.89;92.75
18985;BME280;9626;52.552;13.436;2023-05-19T06:44:48;102114.22;;;11.93;92.67
18985;BME280;9626;52.552;13.436;2023-05-19T06:47:15;102117.75;;;11.94;93.48
18985;BME280;9626;52.552;13.436;2023-05-19T06:49:41;102116.88;;;12.04;93.39
18985;BME280;9626;52.552;13.436;2023-05-19T06:52:07;102115.97;;;12.10;93.23
18985;BME280;9626;52.552;13.436;2023-05-19T06:54:33;102113.31;;;12.08;92.48
18985;BME280;9626;52.552;13.436;2023-05-19T06:56:59;102107.97;;;12.14;93.25
18985;BME280;9626;52.552;13.436;2023-05-19T06:59:25;102115.03;;;12.25;92.97
18985;BME280;9626;52.552;13.436;2023-05-19T07:01:51;102119.41;;;12.37;94.74
18985;BME280;9626;52.552;13.436;2023-05-19T07:04:17;102115.78;;;12.55;92.35
18985;BME280;9626;52.552;13.436;2023-05-19T07:06:43;102115.72;;;12.64;91.81
18985;BME280;9626;52.552;13.436;2023-05-19T07:09:09;102115.72;;;12.67;91.39
18985;BME280;9626;52.552;13.436;2023-05-19T07:11:36;102113.91;;;12.71;91.32
18985;BME280;9626;52.552;13.436;2023-05-19T07:14:02;102113.06;;;12.64;92.52
18985;BME280;9626;52.552;13.436;2023-05-19T07:16:28;102120.09;;;12.74;92.12
18985;BME280;9626;52.552;13.436;2023-05-19T07:18:54;102121.78;;;12.88;90.70
18985;BME280;9626;52.552;13.436;2023-05-19T07:21:20;102118.19;;;12.98;91.11
18985;BME280;9626;52.552;13.436;2023-05-19T07:23:46;102113.66;;;13.08;90.04
18985;BME280;9626;52.552;13.436;2023-05-19T07:26:12;102109.09;;;13.25;88.47
18985;BME280;9626;52.552;13.436;2023-05-19T07:28:38;102118.78;;;13.37;86.36
18985;BME280;9626;52.552;13.436;2023-05-19T07:31:04;102111.63;;;13.42;86.24
18985;BME280;9626;52.552;13.436;2023-05-19T07:33:31;102116.06;;;13.40;85.05
18985;BME280;9626;52.552;13.436;2023-05-19T07:36:00;102116.00;;;13.52;84.53
18985;BME280;9626;52.552;13.436;2023-05-19T07:38:29;102103.38;;;13.70;82.62
18985;BME280;9626;52.552;13.436;2023-05-19T07:41:00;102114.81;;;13.81;81.93
18985;BME280;9626;52.552;13.436;2023-05-19T07:43:26;102107.66;;;13.85;81.71
18985;BME280;9626;52.552;13.436;2023-05-19T07:45:52;102106.78;;;13.86;80.17
18985;BME280;9626;52.552;13.436;2023-05-19T07:48:19;102108.47;;;13.92;79.57
18985;BME280;9626;52.552;13.436;2023-05-19T07:50:47;102104.88;;;13.99;78.89
18985;BME280;9626;52.552;13.436;2023-05-19T07:53:14;102108.38;;;14.01;78.52
18985;BME280;9626;52.552;13.436;2023-05-19T07:55:40;102102.91;;;14.13;78.12
18985;BME280;9626;52.552;13.436;2023-05-19T07:58:06;102106.56;;;14.06;76.55
18985;BME280;9626;52.552;13.436;2023-05-19T08:00:32;102102.91;;;14.13;75.53
18985;BME280;9626;52.552;13.436;2023-05-19T08:02:59;102108.19;;;14.16;74.32
18985;BME280;9626;52.552;13.436;2023-05-19T08:05:26;102115.97;;;14.35;74.24
18985;BME280;9626;52.552;13.436;2023-05-19T08:07:52;102105.19;;;14.44;73.81
18985;BME280;9626;52.552;13.436;2023-05-19T08:10:18;102099.78;;;14.52;73.32
18985;BME280;9626;52.552;13.436;2023-05-19T08:12:45;102100.59;;;14.56;72.54
18985;BME280;9626;52.552;13.436;2023-05-19T08:15:11;102104.94;;;14.63;71.66
18985;BME280;9626;52.552;13.436;2023-05-19T08:17:37;102104.47;;;14.97;70.08
18985;BME280;9626;52.552;13.436;2023-05-19T08:20:04;102105.41;;;15.47;67.03
18985;BME280;9626;52.552;13.436;2023-05-19T08:22:33;102102.19;;;15.78;65.23
18985;BME280;9626;52.552;13.436;2023-05-19T08:24:59;102101.78;;;15.53;66.02
18985;BME280;9626;52.552;13.436;2023-05-19T08:27:26;102107.66;;;15.72;63.17
18985;BME280;9626;52.552;13.436;2023-05-19T08:29:52;102102.97;;;15.85;61.95
18985;BME280;9626;52.552;13.436;2023-05-19T08:32:19;102101.94;;;16.36;60.41
18985;BME280;9626;52.552;13.436;2023-05-19T08:34:45;102108.50;;;16.62;58.49
18985;BME280;9626;52.552;13.436;2023-05-19T08:37:11;102101.50;;;16.97;56.42
18985;BME280;9626;52.552;13.436;2023-05-19T08:39:38;102105.97;;;17.32;55.44
18985;BME280;9626;52.552;13.436;2023-05-19T08:42:04;102111.31;;;17.67;54.33
18985;BME280;9626;52.552;13.436;2023-05-19T08:44:32;102106.56;;;18.11;52.30
18985;BME280;9626;52.552;13.436;2023-05-19T08:47:02;102108.59;;;18.33;51.52
18985;BME280;9626;52.552;13.436;2023-05-19T08:49:45;102101.94;;;18.16;50.15
18985;BME280;9626;52.552;13.436;2023-05-19T08:55:30;102098.00;;;17.64;52.03
18985;BME280;9626;52.552;13.436;2023-05-19T08:58:00;102090.88;;;16.94;51.98
18985;BME280;9626;52.552;13.436;2023-05-19T09:00:27;102093.91;;;16.77;54.60
18985;BME280;9626;52.552;13.436;2023-05-19T09:02:54;102080.56;;;17.14;53.84
18985;BME280;9626;52.552;13.436;2023-05-19T09:05:20;102084.03;;;17.18;53.12
18985;BME280;9626;52.552;13.436;2023-05-19T09:07:46;102078.19;;;17.02;53.55
18985;BME280;9626;52.552;13.436;2023-05-19T09:10:13;102076.28;;;16.68;53.29
18985;BME280;9626;52.552;13.436;2023-05-19T09:12:44;102082.84;;;16.94;53.13
18985;BME280;9626;52.552;13.436;2023-05-19T09:15:12;102078.78;;;16.74;54.08
18985;BME280;9626;52.552;13.436;2023-05-19T09:17:39;102071.34;;;16.88;53.70
18985;BME280;9626;52.552;13.436;2023-05-19T09:20:08;102069.53;;;16.90;53.00
18985;BME280;9626;52.552;13.436;2023-05-19T09:22:40;102061.81;;;17.14;52.61
18985;BME280;9626;52.552;13.436;2023-05-19T09:25:23;102068.69;;;17.24;51.32
18985;BME280;9626;52.552;13.436;2023-05-19T09:27:49;102053.56;;;17.23;50.82
18985;BME280;9626;52.552;13.436;2023-05-19T09:30:16;102056.38;;;17.17;49.63
18985;BME280;9626;52.552;13.436;2023-05-19T09:32:43;102069.81;;;17.16;50.57
18985;BME280;9626;52.552;13.436;2023-05-19T09:35:10;102056.75;;;17.03;50.36
18985;BME280;9626;52.552;13.436;2023-05-19T09:37:41;102056.88;;;16.99;50.19
18985;BME280;9626;52.552;13.436;2023-05-19T09:40:12;102056.56;;;17.11;50.00
18985;BME280;9626;52.552;13.436;2023-05-19T09:42:40;102051.94;;;17.16;49.98
18985;BME280;9626;52.552;13.436;2023-05-19T09:45:07;102051.94;;;17.16;50.05
18985;BME280;9626;52.552;13.436;2023-05-19T09:47:38;102050.97;;;17.19;49.13
18985;BME280;9626;52.552;13.436;2023-05-19T09:50:09;102053.34;;;16.97;49.32
18985;BME280;9626;52.552;13.436;2023-05-19T09:52:41;102047.25;;;16.88;49.98
18985;BME280;9626;52.552;13.436;2023-05-19T09:55:09;102047.16;;;16.95;50.32
18985;BME280;9626;52.552;13.436;2023-05-19T09:57:36;102046.16;;;16.99;50.82
18985;BME280;9626;52.552;13.436;2023-05-19T10:00:07;102048.84;;;16.99;50.93
18985;BME280;9626;52.552;13.436;2023-05-19T10:02:41;102039.06;;;16.98;49.55
18985;BME280;9626;52.552;13.436;2023-05-19T10:05:13;102041.03;;;16.88;50.10
18985;BME280;9626;52.552;13.436;2023-05-19T10:07:51;102044.56;;;16.90;49.68
18985;BME280;9626;52.552;13.436;2023-05-19T10:10:21;102037.47;;;16.87;49.57
18985;BME280;9626;52.552;13.436;2023-05-19T10:12:48;102031.38;;;16.81;50.14
18985;BME280;9626;52.552;13.436;2023-05-19T10:15:16;102028.63;;;16.85;50.19
18985;BME280;9626;52.552;13.436;2023-05-19T10:17:43;102026.22;;;16.75;49.64
18985;BME280;9626;52.552;13.436;2023-05-19T10:20:13;102025.56;;;16.63;49.53
18985;BME280;9626;52.552;13.436;2023-05-19T10:22:43;102034.50;;;16.64;49.99
18985;BME280;9626;52.552;13.436;2023-05-19T10:25:10;102033.50;;;16.68;49.68
18985;BME280;9626;52.552;13.436;2023-05-19T10:27:44;102037.00;;;16.71;49.82
18985;BME280;9626;52.552;13.436;2023-05-19T10:30:14;102031.06;;;16.96;49.52
18985;BME280;9626;52.552;13.436;2023-05-19T10:32:43;102025.59;;;17.01;48.53
18985;BME280;9626;52.552;13.436;2023-05-19T10:38:30;102027.06;;;17.13;48.23
18985;BME280;9626;52.552;13.436;2023-05-19T10:41:10;102035.47;;;16.99;48.55
18985;BME280;9626;52.552;13.436;2023-05-19T10:46:10;102025.50;;;16.66;48.85
18985;BME280;9626;52.552;13.436;2023-05-19T10:48:36;102021.91;;;16.69;49.60
18985;BME280;9626;52.552;13.436;2023-05-19T10:51:03;102030.94;;;16.62;49.82
18985;BME280;9626;52.552;13.436;2023-05-19T10:53:31;102024.78;;;16.60;49.66
18985;BME280;9626;52.552;13.436;2023-05-19T10:56:00;102019.22;;;16.69;49.21
18985;BME280;9626;52.552;13.436;2023-05-19T10:58:49;102014.31;;;16.86;48.66
18985;BME280;9626;52.552;13.436;2023-05-19T11:01:18;102017.97;;;16.82;49.11
18985;BME280;9626;52.552;13.436;2023-05-19T11:03:53;102008.03;;;16.89;48.74
18985;BME280;9626;52.552;13.436;2023-05-19T11:06:29;102016.06;;;16.87;48.63
18985;BME280;9626;52.552;13.436;2023-05-19T11:09:01;102012.38;;;16.95;49.46
18985;BME280;9626;52.552;13.436;2023-05-19T11:14:11;102011.63;;;16.89;49.69
18985;BME280;9626;52.552;13.436;2023-05-19T11:16:39;102022.19;;;16.94;49.36
18985;BME280;9626;52.552;13.436;2023-05-19T11:19:36;102019.63;;;16.89;49.21
18985;BME280;9626;52.552;13.436;2023-05-19T11:22:11;102012.28;;;16.98;49.31
18985;BME280;9626;52.552;13.436;2023-05-19T11:24:45;102006.09;;;16.96;48.80
18985;BME280;9626;52.552;13.436;2023-05-19T11:27:42;102008.50;;;17.06;48.44
18985;BME280;9626;52.552;13.436;2023-05-19T11:30:11;102003.22;;;17.03;47.94
18985;BME280;9626;52.552;13.436;2023-05-19T11:32:39;102001.50;;;17.01;47.98
18985;BME280;9626;52.552;13.436;2023-05-19T11:35:09;101994.25;;;17.06;47.85
18985;BME280;9626;52.552;13.436;2023-05-19T11:37:36;101998.00;;;16.99;48.14
18985;BME280;9626;52.552;13.436;2023-05-19T11:40:05;101987.22;;;17.02;48.38
18985;BME280;9626;52.552;13.436;2023-05-19T11:42:35;101991.56;;;17.06;48.59
18985;BME280;9626;52.552;13.436;2023-05-19T11:45:02;101992.53;;;17.03;48.48
18985;BME280;9626;52.552;13.436;2023-05-19T11:47:29;101995.97;;;17.09;48.66
18985;BME280;9626;52.552;13.436;2023-05-19T11:49:56;101994.72;;;17.22;49.01
18985;BME280;9626;52.552;13.436;2023-05-19T11:52:24;101986.66;;;17.23;47.14
18985;BME280;9626;52.552;13.436;2023-05-19T11:54:51;101987.97;;;17.40;46.89
18985;BME280;9626;52.552;13.436;2023-05-19T11:57:18;101995.56;;;17.55;46.34
18985;BME280;9626;52.552;13.436;2023-05-19T11:59:44;101994.31;;;17.69;46.07
18985;BME280;9626;52.552;13.436;2023-05-19T12:02:23;101987.03;;;17.74;46.64
18985;BME280;9626;52.552;13.436;2023-05-19T12:04:50;101988.03;;;17.70;46.34
18985;BME280;9626;52.552;13.436;2023-05-19T12:07:21;101987.56;;;17.85;46.39
18985;BME280;9626;52.552;13.436;2023-05-19T12:09:51;101981.25;;;17.88;46.71
18985;BME280;9626;52.552;13.436;2023-05-19T12:12:19;101990.31;;;17.84;46.14
18985;BME280;9626;52.552;13.436;2023-05-19T12:14:47;101987.84;;;17.76;46.17
18985;BME280;9626;52.552;13.436;2023-05-19T12:17:15;101981.94;;;17.65;45.97
18985;BME280;9626;52.552;13.436;2023-05-19T12:19:43;101983.69;;;17.66;46.20
18985;BME280;9626;52.552;13.436;2023-05-19T12:22:10;101978.94;;;17.76;46.06
18985;BME280;9626;52.552;13.436;2023-05-19T12:24:37;101981.31;;;17.86;45.10
18985;BME280;9626;52.552;13.436;2023-05-19T12:29:48;101990.94;;;17.94;44.02
18985;BME280;9626;52.552;13.436;2023-05-19T12:32:14;101966.41;;;18.07;44.01
18985;BME280;9626;52.552;13.436;2023-05-19T12:34:40;101965.56;;;18.05;43.77
18985;BME280;9626;52.552;13.436;2023-05-19T12:37:09;101974.81;;;17.95;44.37
18985;BME280;9626;52.552;13.436;2023-05-19T12:39:35;101973.56;;;18.07;43.89
18985;BME280;9626;52.552;13.436;2023-05-19T12:42:11;101966.44;;;18.06;44.12
18985;BME280;9626;52.552;13.436;2023-05-19T12:44:44;101966.53;;;18.03;45.08
18985;BME280;9626;52.552;13.436;2023-05-19T12:47:14;101969.50;;;17.94;45.31
18985;BME280;9626;52.552;13.436;2023-05-19T12:52:26;101967.09;;;17.53;44.79
18985;BME280;9626;52.552;13.436;2023-05-19T12:55:12;101959.28;;;17.45;45.19
18985;BME280;9626;52.552;13.436;2023-05-19T12:57:40;101964.00;;;17.35;45.80
18985;BME280;9626;52.552;13.436;2023-05-19T13:00:12;101964.19;;;17.29;45.96
18985;BME280;9626;52.552;13.436;2023-05-19T13:05:29;101966.88;;;17.61;46.35
18985;BME280;9626;52.552;13.436;2023-05-19T13:07:55;101961.09;;;17.74;45.67
18985;BME280;9626;52.552;13.436;2023-05-19T13:10:22;101949.78;;;17.65;45.61
18985;BME280;9626;52.552;13.436;2023-05-19T13:12:52;101950.91;;;17.56;46.24
18985;BME280;9626;52.552;13.436;2023-05-19T13:15:20;101951.22;;;17.47;46.63
18985;BME280;9626;52.552;13.436;2023-05-19T13:17:46;101958.63;;;17.37;47.09
18985;BME280;9626;52.552;13.436;2023-05-19T13:20:13;101961.31;;;17.37;47.15
18985;BME280;9626;52.552;13.436;2023-05-19T13:22:39;101957.34;;;17.50;47.29
18985;BME280;9626;52.552;13.436;2023-05-19T13:25:05;101955.16;;;17.65;47.09